sensor_id;sensor_type;location;lat;lon;timestamp;P1;durP1;ratioP1;P2;durP2;ratioP2
16880;SDS011;8557;52.068;5.198;2022-09-09T00:02:08;5.55;;;3.08;;
16880;SDS011;8557;52.068;5.198;2022-09-09T00:04:43;4.40;;;2.78;;
16880;SDS011;8557;52.068;5.198;2022-09-09T00:07:19;4.05;;;2.83;;
16880;SDS011;8557;52.068;5.198;2022-09-09T00:09:51;4.55;;;2.90;;
16880;SDS011;8557;52.068;5.198;2022-09-09T00:12:28;6.55;;;2.72;;
16880;SDS011;8557;52.068;5.198;2022-09-09T00:15:04;4.93;;;2.80;;
16880;SDS011;8557;52.068;5.198;2022-09-09T00:17:35;6.40;;;3.47;;
16880;SDS011;8557;52.068;5.198;2022-09-09T00:20:09;4.72;;;3.00;;
16880;SDS011;8557;52.068;5.198;2022-09-09T00:22:42;3.75;;;2.92;;
16880;SDS011;8557;52.068;5.198;2022-09-09T00:25:17;3.42;;;2.60;;
16880;SDS011;8557;52.068;5.198;2022-09-09T00:27:50;4.13;;;3.03;;
16880;SDS011;8557;52.068;5.198;2022-09-09T00:30:18;4.25;;;2.60;;
16880;SDS011;8557;52.068;5.198;2022-09-09T00:32:48;5.20;;;2.67;;
16880;SDS011;8557;52.068;5.198;2022-09-09T00:35:17;5.00;;;2.80;;
16880;SDS011;8557;52.068;5.198;2022-09-09T00:37:50;2.75;;;2.55;;
16880;SDS011;8557;52.068;5.198;2022-09-09T00:40:24;4.65;;;2.65;;
16880;SDS011;8557;52.068;5.198;2022-09-09T00:43:10;3.53;;;2.47;;
16880;SDS011;8557;52.068;5.198;2022-09-09T00:46:05;3.88;;;2.38;;
16880;SDS011;8557;52.068;5.198;2022-09-09T00:48:50;6.18;;;2.88;;
16880;SDS011;8557;52.068;5.198;2022-09-09T00:51:25;3.70;;;2.80;;
16880;SDS011;8557;52.068;5.198;2022-09-09T00:54:10;3.10;;;2.60;;
16880;SDS011;8557;52.068;5.198;2022-09-09T00:56:53;2.85;;;2.40;;
16880;SDS011;8557;52.068;5.198;2022-09-09T00:59:32;3.83;;;2.63;;
16880;SDS011;8557;52.068;5.198;2022-09-09T01:02:08;4.93;;;2.92;;
16880;SDS011;8557;52.068;5.198;2022-09-09T01:04:41;5.80;;;2.97;;
16880;SDS011;8557;52.068;5.198;2022-09-09T01:07:12;3.60;;;2.80;;
16880;SDS011;8557;52.068;5.198;2022-09-09T01:09:46;2.88;;;2.67;;
16880;SDS011;8557;52.068;5.198;2022-09-09T01:12:23;3.20;;;2.75;;
16880;SDS011;8557;52.068;5.198;2022-09-09T01:14:56;6.47;;;3.33;;
16880;SDS011;8557;52.068;5.198;2022-09-09T01:17:30;4.97;;;2.80;;
16880;SDS011;8557;52.068;5.198;2022-09-09T01:20:04;4.50;;;2.90;;
16880;SDS011;8557;52.068;5.198;2022-09-09T01:22:38;5.72;;;2.75;;
16880;SDS011;8557;52.068;5.198;2022-09-09T01:28:30;4.57;;;2.88;;
16880;SDS011;8557;52.068;5.198;2022-09-09T01:31:00;4.65;;;2.50;;
16880;SDS011;8557;52.068;5.198;2022-09-09T01:33:28;3.80;;;2.83;;
16880;SDS011;8557;52.068;5.198;2022-09-09T01:35:55;4.63;;;2.75;;
16880;SDS011;8557;52.068;5.198;2022-09-09T01:38:25;4.38;;;2.92;;
16880;SDS011;8557;52.068;5.198;2022-09-09T01:40:55;5.32;;;3.30;;
16880;SDS011;8557;52.068;5.198;2022-09-09T01:43:23;3.40;;;3.15;;
16880;SDS011;8557;52.068;5.198;2022-09-09T01:45:52;5.43;;;3.15;;
16880;SDS011;8557;52.068;5.198;2022-09-09T01:48:21;4.57;;;3.10;;
16880;SDS011;8557;52.068;5.198;2022-09-09T01:50:49;3.03;;;2.75;;
16880;SDS011;8557;52.068;5.198;2022-09-09T01:53:17;4.60;;;3.53;;
16880;SDS011;8557;52.068;5.198;2022-09-09T01:55:46;5.63;;;3.45;;
16880;SDS011;8557;52.068;5.198;2022-09-09T01:58:26;4.70;;;3.70;;
16880;SDS011;8557;52.068;5.198;2022-09-09T02:01:02;4.80;;;3.78;;
16880;SDS011;8557;52.068;5.198;2022-09-09T02:03:35;4.13;;;3.70;;
16880;SDS011;8557;52.068;5.198;2022-09-09T02:06:05;6.78;;;3.78;;
16880;SDS011;8557;52.068;5.198;2022-09-09T02:08:42;4.80;;;3.60;;
16880;SDS011;8557;52.068;5.198;2022-09-09T02:11:12;5.88;;;4.00;;
16880;SDS011;8557;52.068;5.198;2022-09-09T02:13:42;6.45;;;4.32;;
16880;SDS011;8557;52.068;5.198;2022-09-09T02:16:12;6.10;;;3.60;;
16880;SDS011;8557;52.068;5.198;2022-09-09T02:18:44;4.75;;;3.90;;
16880;SDS011;8557;52.068;5.198;2022-09-09T02:21:16;7.28;;;4.43;;
16880;SDS011;8557;52.068;5.198;2022-09-09T02:23:44;5.72;;;3.70;;
16880;SDS011;8557;52.068;5.198;2022-09-09T02:26:15;6.80;;;4.22;;
16880;SDS011;8557;52.068;5.198;2022-09-09T02:28:48;5.05;;;3.53;;
16880;SDS011;8557;52.068;5.198;2022-09-09T02:31:17;5.18;;;3.88;;
16880;SDS011;8557;52.068;5.198;2022-09-09T02:33:46;4.25;;;3.85;;
16880;SDS011;8557;52.068;5.198;2022-09-09T02:36:18;4.32;;;3.90;;
16880;SDS011;8557;52.068;5.198;2022-09-09T02:38:47;4.72;;;4.00;;
16880;SDS011;8557;52.068;5.198;2022-09-09T02:41:18;6.18;;;3.53;;
16880;SDS011;8557;52.068;5.198;2022-09-09T02:43:49;6.65;;;4.05;;
16880;SDS011;8557;52.068;5.198;2022-09-09T02:46:21;5.07;;;3.78;;
16880;SDS011;8557;52.068;5.198;2022-09-09T02:48:58;4.75;;;4.13;;
16880;SDS011;8557;52.068;5.198;2022-09-09T02:51:29;7.25;;;4.07;;
16880;SDS011;8557;52.068;5.198;2022-09-09T02:54:04;4.93;;;3.58;;
16880;SDS011;8557;52.068;5.198;2022-09-09T02:56:39;4.43;;;3.60;;
16880;SDS011;8557;52.068;5.198;2022-09-09T02:59:11;5.53;;;3.65;;
16880;SDS011;8557;52.068;5.198;2022-09-09T03:01:38;6.10;;;4.00;;
16880;SDS011;8557;52.068;5.198;2022-09-09T03:04:05;5.60;;;3.92;;
16880;SDS011;8557;52.068;5.198;2022-09-09T03:06:31;4.32;;;3.72;;
16880;SDS011;8557;52.068;5.198;2022-09-09T03:08:58;4.90;;;3.88;;
16880;SDS011;8557;52.068;5.198;2022-09-09T03:11:27;5.50;;;4.10;;
16880;SDS011;8557;52.068;5.198;2022-09-09T03:13:54;6.43;;;3.90;;
16880;SDS011;8557;52.068;5.198;2022-09-09T03:16:23;5.55;;;4.15;;
16880;SDS011;8557;52.068;5.198;2022-09-09T03:18:50;4.95;;;4.00;;
16880;SDS011;8557;52.068;5.198;2022-09-09T03:21:17;5.10;;;4.35;;
16880;SDS011;8557;52.068;5.198;2022-09-09T03:23:44;6.45;;;4.25;;
16880;SDS011;8557;52.068;5.198;2022-09-09T03:26:11;10.48;;;4.25;;
16880;SDS011;8557;52.068;5.198;2022-09-09T03:28:40;7.57;;;4.35;;
16880;SDS011;8557;52.068;5.198;2022-09-09T03:31:06;6.25;;;4.40;;
16880;SDS011;8557;52.068;5.198;2022-09-09T03:33:36;6.00;;;4.53;;
16880;SDS011;8557;52.068;5.198;2022-09-09T03:36:03;6.32;;;4.82;;
16880;SDS011;8557;52.068;5.198;2022-09-09T03:38:30;7.55;;;4.90;;
16880;SDS011;8557;52.068;5.198;2022-09-09T03:40:58;5.35;;;4.68;;
16880;SDS011;8557;52.068;5.198;2022-09-09T03:43:27;7.80;;;5.18;;
16880;SDS011;8557;52.068;5.198;2022-09-09T03:45:54;7.57;;;4.65;;
16880;SDS011;8557;52.068;5.198;2022-09-09T03:48:22;7.13;;;4.78;;
16880;SDS011;8557;52.068;5.198;2022-09-09T03:50:51;8.32;;;5.03;;
16880;SDS011;8557;52.068;5.198;2022-09-09T03:53:20;6.82;;;4.82;;
16880;SDS011;8557;52.068;5.198;2022-09-09T03:55:50;6.00;;;4.45;;
16880;SDS011;8557;52.068;5.198;2022-09-09T03:58:20;5.88;;;4.30;;
16880;SDS011;8557;52.068;5.198;2022-09-09T04:00:58;5.05;;;4.43;;
16880;SDS011;8557;52.068;5.198;2022-09-09T04:03:26;5.18;;;4.32;;
16880;SDS011;8557;52.068;5.198;2022-09-09T04:05:56;5.28;;;4.50;;
16880;SDS011;8557;52.068;5.198;2022-09-09T04:08:24;8.07;;;4.65;;
16880;SDS011;8557;52.068;5.198;2022-09-09T04:10:51;6.70;;;4.72;;
16880;SDS011;8557;52.068;5.198;2022-09-09T04:13:22;7.88;;;4.80;;
16880;SDS011;8557;52.068;5.198;2022-09-09T04:15:50;7.25;;;4.03;;
16880;SDS011;8557;52.068;5.198;2022-09-09T04:18:17;8.15;;;4.35;;
16880;SDS011;8557;52.068;5.198;2022-09-09T04:20:45;6.50;;;4.72;;
16880;SDS011;8557;52.068;5.198;2022-09-09T04:23:14;5.55;;;4.47;;
16880;SDS011;8557;52.068;5.198;2022-09-09T04:25:43;5.18;;;4.55;;
16880;SDS011;8557;52.068;5.198;2022-09-09T04:28:11;6.43;;;5.18;;
16880;SDS011;8557;52.068;5.198;2022-09-09T04:30:39;7.30;;;4.93;;
16880;SDS011;8557;52.068;5.198;2022-09-09T04:33:06;6.95;;;4.20;;
16880;SDS011;8557;52.068;5.198;2022-09-09T04:35:34;7.22;;;4.43;;
16880;SDS011;8557;52.068;5.198;2022-09-09T04:38:01;7.53;;;4.53;;
16880;SDS011;8557;52.068;5.198;2022-09-09T04:40:30;5.82;;;4.13;;
16880;SDS011;8557;52.068;5.198;2022-09-09T04:42:58;6.47;;;4.13;;
16880;SDS011;8557;52.068;5.198;2022-09-09T04:45:25;5.22;;;4.40;;
16880;SDS011;8557;52.068;5.198;2022-09-09T04:47:52;6.50;;;4.40;;
16880;SDS011;8557;52.068;5.198;2022-09-09T04:50:20;7.25;;;3.88;;
16880;SDS011;8557;52.068;5.198;2022-09-09T04:52:47;7.13;;;4.80;;
16880;SDS011;8557;52.068;5.198;2022-09-09T04:55:14;6.15;;;4.35;;
16880;SDS011;8557;52.068;5.198;2022-09-09T04:57:42;7.22;;;4.55;;
16880;SDS011;8557;52.068;5.198;2022-09-09T05:00:09;6.32;;;4.43;;
16880;SDS011;8557;52.068;5.198;2022-09-09T05:02:38;8.85;;;4.35;;
16880;SDS011;8557;52.068;5.198;2022-09-09T05:05:06;6.50;;;4.28;;
16880;SDS011;8557;52.068;5.198;2022-09-09T05:07:33;7.00;;;4.53;;
16880;SDS011;8557;52.068;5.198;2022-09-09T05:10:01;8.85;;;4.55;;
16880;SDS011;8557;52.068;5.198;2022-09-09T05:12:30;7.85;;;4.38;;
16880;SDS011;8557;52.068;5.198;2022-09-09T05:14:59;4.70;;;3.78;;
16880;SDS011;8557;52.068;5.198;2022-09-09T05:17:26;10.25;;;4.20;;
16880;SDS011;8557;52.068;5.198;2022-09-09T05:19:53;7.43;;;4.20;;
16880;SDS011;8557;52.068;5.198;2022-09-09T05:22:20;4.78;;;3.72;;
16880;SDS011;8557;52.068;5.198;2022-09-09T05:24:48;9.68;;;4.78;;
16880;SDS011;8557;52.068;5.198;2022-09-09T05:27:15;6.70;;;4.45;;
16880;SDS011;8557;52.068;5.198;2022-09-09T05:29:44;6.38;;;4.07;;
16880;SDS011;8557;52.068;5.198;2022-09-09T05:32:12;5.00;;;3.90;;
16880;SDS011;8557;52.068;5.198;2022-09-09T05:34:40;9.10;;;4.05;;
16880;SDS011;8557;52.068;5.198;2022-09-09T05:37:06;7.60;;;4.03;;
16880;SDS011;8557;52.068;5.198;2022-09-09T05:39:33;7.00;;;3.78;;
16880;SDS011;8557;52.068;5.198;2022-09-09T05:42:02;8.57;;;3.80;;
16880;SDS011;8557;52.068;5.198;2022-09-09T05:44:30;8.02;;;4.28;;
16880;SDS011;8557;52.068;5.198;2022-09-09T05:46:57;5.28;;;3.55;;
16880;SDS011;8557;52.068;5.198;2022-09-09T05:49:25;7.68;;;3.70;;
16880;SDS011;8557;52.068;5.198;2022-09-09T05:51:52;7.55;;;3.50;;
16880;SDS011;8557;52.068;5.198;2022-09-09T05:54:18;9.18;;;3.92;;
16880;SDS011;8557;52.068;5.198;2022-09-09T05:56:46;8.27;;;3.72;;
16880;SDS011;8557;52.068;5.198;2022-09-09T05:59:15;7.88;;;3.53;;
16880;SDS011;8557;52.068;5.198;2022-09-09T06:01:43;5.45;;;3.25;;
16880;SDS011;8557;52.068;5.198;2022-09-09T06:04:10;6.75;;;3.25;;
16880;SDS011;8557;52.068;5.198;2022-09-09T06:06:38;4.93;;;3.13;;
16880;SDS011;8557;52.068;5.198;2022-09-09T06:09:07;7.53;;;3.30;;
16880;SDS011;8557;52.068;5.198;2022-09-09T06:11:35;9.73;;;3.85;;
16880;SDS011;8557;52.068;5.198;2022-09-09T06:14:03;6.88;;;2.90;;
16880;SDS011;8557;52.068;5.198;2022-09-09T06:16:30;5.60;;;3.13;;
16880;SDS011;8557;52.068;5.198;2022-09-09T06:18:58;8.70;;;3.28;;
16880;SDS011;8557;52.068;5.198;2022-09-09T06:21:26;6.82;;;3.45;;
16880;SDS011;8557;52.068;5.198;2022-09-09T06:23:56;6.30;;;3.20;;
16880;SDS011;8557;52.068;5.198;2022-09-09T06:26:24;8.52;;;3.22;;
16880;SDS011;8557;52.068;5.198;2022-09-09T06:28:52;6.80;;;3.25;;
16880;SDS011;8557;52.068;5.198;2022-09-09T06:31:20;6.60;;;2.92;;
16880;SDS011;8557;52.068;5.198;2022-09-09T06:33:49;10.32;;;3.95;;
16880;SDS011;8557;52.068;5.198;2022-09-09T06:36:17;10.07;;;2.78;;
16880;SDS011;8557;52.068;5.198;2022-09-09T06:38:45;5.47;;;2.60;;
16880;SDS011;8557;52.068;5.198;2022-09-09T06:41:14;5.70;;;2.83;;
16880;SDS011;8557;52.068;5.198;2022-09-09T06:43:43;7.18;;;3.08;;
16880;SDS011;8557;52.068;5.198;2022-09-09T06:46:11;7.18;;;2.95;;
16880;SDS011;8557;52.068;5.198;2022-09-09T06:48:39;7.50;;;2.67;;
16880;SDS011;8557;52.068;5.198;2022-09-09T06:51:07;6.45;;;2.88;;
16880;SDS011;8557;52.068;5.198;2022-09-09T06:53:36;5.22;;;2.50;;
16880;SDS011;8557;52.068;5.198;2022-09-09T06:56:17;5.97;;;2.72;;
16880;SDS011;8557;52.068;5.198;2022-09-09T06:58:46;9.15;;;2.90;;
16880;SDS011;8557;52.068;5.198;2022-09-09T07:01:14;8.02;;;2.95;;
16880;SDS011;8557;52.068;5.198;2022-09-09T07:03:42;8.02;;;2.90;;
16880;SDS011;8557;52.068;5.198;2022-09-09T07:06:13;12.43;;;3.45;;
16880;SDS011;8557;52.068;5.198;2022-09-09T07:08:42;7.13;;;2.75;;
16880;SDS011;8557;52.068;5.198;2022-09-09T07:11:09;4.65;;;2.78;;
16880;SDS011;8557;52.068;5.198;2022-09-09T07:13:38;6.03;;;2.65;;
16880;SDS011;8557;52.068;5.198;2022-09-09T07:16:05;7.90;;;2.70;;
16880;SDS011;8557;52.068;5.198;2022-09-09T07:18:33;10.00;;;3.67;;
16880;SDS011;8557;52.068;5.198;2022-09-09T07:21:00;7.47;;;2.95;;
16880;SDS011;8557;52.068;5.198;2022-09-09T07:23:28;9.27;;;2.85;;
16880;SDS011;8557;52.068;5.198;2022-09-09T07:25:55;10.43;;;3.35;;
16880;SDS011;8557;52.068;5.198;2022-09-09T07:28:22;8.50;;;3.05;;
16880;SDS011;8557;52.068;5.198;2022-09-09T07:30:54;6.43;;;3.00;;
16880;SDS011;8557;52.068;5.198;2022-09-09T07:33:22;4.50;;;2.67;;
16880;SDS011;8557;52.068;5.198;2022-09-09T07:35:48;8.38;;;3.17;;
16880;SDS011;8557;52.068;5.198;2022-09-09T07:38:16;7.63;;;2.95;;
16880;SDS011;8557;52.068;5.198;2022-09-09T07:40:43;7.88;;;3.00;;
16880;SDS011;8557;52.068;5.198;2022-09-09T07:43:10;7.55;;;2.90;;
16880;SDS011;8557;52.068;5.198;2022-09-09T07:45:37;7.30;;;2.60;;
16880;SDS011;8557;52.068;5.198;2022-09-09T07:48:06;6.68;;;2.50;;
16880;SDS011;8557;52.068;5.198;2022-09-09T07:50:34;7.70;;;2.40;;
16880;SDS011;8557;52.068;5.198;2022-09-09T07:53:01;4.35;;;2.50;;
16880;SDS011;8557;52.068;5.198;2022-09-09T07:55:30;6.80;;;2.60;;
16880;SDS011;8557;52.068;5.198;2022-09-09T07:57:56;4.15;;;2.40;;
16880;SDS011;8557;52.068;5.198;2022-09-09T08:00:23;6.38;;;2.40;;
16880;SDS011;8557;52.068;5.198;2022-09-09T08:02:52;7.88;;;2.92;;
16880;SDS011;8557;52.068;5.198;2022-09-09T08:05:21;6.60;;;2.40;;
16880;SDS011;8557;52.068;5.198;2022-09-09T08:07:48;6.63;;;2.80;;
16880;SDS011;8557;52.068;5.198;2022-09-09T08:10:15;8.93;;;2.90;;
16880;SDS011;8557;52.068;5.198;2022-09-09T08:12:43;5.30;;;2.50;;
16880;SDS011;8557;52.068;5.198;2022-09-09T08:15:10;7.93;;;2.40;;
16880;SDS011;8557;52.068;5.198;2022-09-09T08:17:37;6.20;;;2.72;;
16880;SDS011;8557;52.068;5.198;2022-09-09T08:20:04;6.82;;;2.38;;
16880;SDS011;8557;52.068;5.198;2022-09-09T08:22:33;7.25;;;2.97;;
16880;SDS011;8557;52.068;5.198;2022-09-09T08:25:02;5.53;;;2.72;;
16880;SDS011;8557;52.068;5.198;2022-09-09T08:27:31;11.43;;;2.50;;
16880;SDS011;8557;52.068;5.198;2022-09-09T08:29:58;8.93;;;2.22;;
16880;SDS011;8557;52.068;5.198;2022-09-09T08:32:25;6.55;;;2.38;;
16880;SDS011;8557;52.068;5.198;2022-09-09T08:34:52;11.63;;;2.58;;
16880;SDS011;8557;52.068;5.198;2022-09-09T08:37:18;6.43;;;2.40;;
16880;SDS011;8557;52.068;5.198;2022-09-09T08:39:47;7.38;;;2.55;;
16880;SDS011;8557;52.068;5.198;2022-09-09T08:42:17;7.45;;;2.53;;
16880;SDS011;8557;52.068;5.198;2022-09-09T08:48:00;6.72;;;2.30;;
16880;SDS011;8557;52.068;5.198;2022-09-09T08:50:38;9.20;;;2.60;;
16880;SDS011;8557;52.068;5.198;2022-09-09T08:53:09;7.95;;;2.50;;
16880;SDS011;8557;52.068;5.198;2022-09-09T08:55:41;7.00;;;2.53;;
16880;SDS011;8557;52.068;5.198;2022-09-09T08:58:12;7.95;;;3.08;;
16880;SDS011;8557;52.068;5.198;2022-09-09T09:00:44;12.05;;;2.70;;
16880;SDS011;8557;52.068;5.198;2022-09-09T09:03:27;4.80;;;2.30;;
16880;SDS011;8557;52.068;5.198;2022-09-09T09:06:01;6.57;;;2.67;;
16880;SDS011;8557;52.068;5.198;2022-09-09T09:08:36;7.63;;;2.65;;
16880;SDS011;8557;52.068;5.198;2022-09-09T09:11:11;9.73;;;2.80;;
16880;SDS011;8557;52.068;5.198;2022-09-09T09:13:40;7.82;;;2.92;;
16880;SDS011;8557;52.068;5.198;2022-09-09T09:16:13;8.25;;;2.60;;
16880;SDS011;8557;52.068;5.198;2022-09-09T09:18:47;8.73;;;2.80;;
16880;SDS011;8557;52.068;5.198;2022-09-09T09:21:16;5.43;;;2.30;;
16880;SDS011;8557;52.068;5.198;2022-09-09T09:23:54;6.22;;;2.00;;
16880;SDS011;8557;52.068;5.198;2022-09-09T09:26:25;6.75;;;2.38;;
16880;SDS011;8557;52.068;5.198;2022-09-09T09:28:58;7.05;;;2.53;;
16880;SDS011;8557;52.068;5.198;2022-09-09T09:31:28;7.32;;;2.65;;
16880;SDS011;8557;52.068;5.198;2022-09-09T09:33:55;10.18;;;2.78;;
16880;SDS011;8557;52.068;5.198;2022-09-09T09:36:24;8.40;;;2.85;;
16880;SDS011;8557;52.068;5.198;2022-09-09T09:39:00;9.85;;;3.40;;
16880;SDS011;8557;52.068;5.198;2022-09-09T09:41:32;6.75;;;3.00;;
16880;SDS011;8557;52.068;5.198;2022-09-09T09:44:00;8.23;;;3.38;;
16880;SDS011;8557;52.068;5.198;2022-09-09T09:46:28;9.95;;;3.80;;
16880;SDS011;8557;52.068;5.198;2022-09-09T09:48:58;10.70;;;3.65;;
16880;SDS011;8557;52.068;5.198;2022-09-09T09:51:26;10.45;;;3.90;;
16880;SDS011;8557;52.068;5.198;2022-09-09T09:53:54;10.63;;;3.78;;
16880;SDS011;8557;52.068;5.198;2022-09-09T09:56:35;8.95;;;3.67;;
16880;SDS011;8557;52.068;5.198;2022-09-09T09:59:02;10.77;;;3.97;;
16880;SDS011;8557;52.068;5.198;2022-09-09T10:01:30;9.90;;;3.80;;
16880;SDS011;8557;52.068;5.198;2022-09-09T10:03:59;6.80;;;3.10;;
16880;SDS011;8557;52.068;5.198;2022-09-09T10:06:31;8.20;;;3.00;;
16880;SDS011;8557;52.068;5.198;2022-09-09T10:08:59;9.70;;;3.67;;
16880;SDS011;8557;52.068;5.198;2022-09-09T10:11:30;8.25;;;3.17;;
16880;SDS011;8557;52.068;5.198;2022-09-09T10:14:10;6.57;;;2.92;;
16880;SDS011;8557;52.068;5.198;2022-09-09T10:16:49;9.40;;;3.08;;
16880;SDS011;8557;52.068;5.198;2022-09-09T10:19:29;12.43;;;3.20;;
16880;SDS011;8557;52.068;5.198;2022-09-09T10:22:06;9.60;;;3.28;;
16880;SDS011;8557;52.068;5.198;2022-09-09T10:27:39;7.55;;;3.25;;
16880;SDS011;8557;52.068;5.198;2022-09-09T10:30:18;5.32;;;3.20;;
16880;SDS011;8557;52.068;5.198;2022-09-09T10:32:48;5.80;;;2.97;;
16880;SDS011;8557;52.068;5.198;2022-09-09T10:35:27;7.93;;;3.03;;
16880;SDS011;8557;52.068;5.198;2022-09-09T10:38:04;5.55;;;3.10;;
16880;SDS011;8557;52.068;5.198;2022-09-09T10:40:58;9.93;;;3.80;;
16880;SDS011;8557;52.068;5.198;2022-09-09T10:43:38;10.35;;;3.45;;
16880;SDS011;8557;52.068;5.198;2022-09-09T10:46:31;4.40;;;2.58;;
16880;SDS011;8557;52.068;5.198;2022-09-09T10:49:09;7.07;;;2.60;;
16880;SDS011;8557;52.068;5.198;2022-09-09T10:51:49;6.95;;;2.35;;
16880;SDS011;8557;52.068;5.198;2022-09-09T10:54:24;6.32;;;2.88;;
16880;SDS011;8557;52.068;5.198;2022-09-09T10:57:03;7.95;;;2.70;;
16880;SDS011;8557;52.068;5.198;2022-09-09T10:59:40;6.18;;;2.70;;
16880;SDS011;8557;52.068;5.198;2022-09-09T11:02:12;7.00;;;2.72;;
16880;SDS011;8557;52.068;5.198;2022-09-09T11:04:45;5.05;;;3.17;;
16880;SDS011;8557;52.068;5.198;2022-09-09T11:07:19;5.13;;;2.88;;
16880;SDS011;8557;52.068;5.198;2022-09-09T11:09:53;4.80;;;2.70;;
16880;SDS011;8557;52.068;5.198;2022-09-09T11:12:26;11.60;;;3.50;;
16880;SDS011;8557;52.068;5.198;2022-09-09T11:14:57;7.75;;;3.15;;
16880;SDS011;8557;52.068;5.198;2022-09-09T11:17:32;8.18;;;3.10;;
16880;SDS011;8557;52.068;5.198;2022-09-09T11:20:05;6.22;;;2.70;;
16880;SDS011;8557;52.068;5.198;2022-09-09T11:22:37;8.10;;;2.55;;
16880;SDS011;8557;52.068;5.198;2022-09-09T11:25:10;6.43;;;2.60;;
16880;SDS011;8557;52.068;5.198;2022-09-09T11:27:43;9.23;;;2.75;;
16880;SDS011;8557;52.068;5.198;2022-09-09T11:30:20;6.55;;;2.42;;
16880;SDS011;8557;52.068;5.198;2022-09-09T11:32:58;7.95;;;2.50;;
16880;SDS011;8557;52.068;5.198;2022-09-09T11:35:48;6.55;;;2.60;;
16880;SDS011;8557;52.068;5.198;2022-09-09T11:38:31;6.95;;;2.28;;
16880;SDS011;8557;52.068;5.198;2022-09-09T11:41:05;4.53;;;2.53;;
16880;SDS011;8557;52.068;5.198;2022-09-09T11:43:38;7.55;;;2.90;;
16880;SDS011;8557;52.068;5.198;2022-09-09T11:46:08;4.43;;;2.63;;
16880;SDS011;8557;52.068;5.198;2022-09-09T11:48:37;4.32;;;2.60;;
16880;SDS011;8557;52.068;5.198;2022-09-09T11:51:08;4.32;;;2.58;;
16880;SDS011;8557;52.068;5.198;2022-09-09T11:53:47;12.60;;;3.75;;
16880;SDS011;8557;52.068;5.198;2022-09-09T11:56:23;6.05;;;3.33;;
16880;SDS011;8557;52.068;5.198;2022-09-09T11:58:56;7.50;;;2.90;;
16880;SDS011;8557;52.068;5.198;2022-09-09T12:01:30;7.70;;;3.08;;
16880;SDS011;8557;52.068;5.198;2022-09-09T12:04:12;9.05;;;4.18;;
16880;SDS011;8557;52.068;5.198;2022-09-09T12:06:59;6.18;;;3.08;;
16880;SDS011;8557;52.068;5.198;2022-09-09T12:09:29;5.95;;;3.00;;
16880;SDS011;8557;52.068;5.198;2022-09-09T12:12:06;6.65;;;3.30;;
16880;SDS011;8557;52.068;5.198;2022-09-09T12:14:35;7.18;;;2.72;;
16880;SDS011;8557;52.068;5.198;2022-09-09T12:17:15;4.85;;;2.90;;
16880;SDS011;8557;52.068;5.198;2022-09-09T12:19:45;3.65;;;2.35;;
16880;SDS011;8557;52.068;5.198;2022-09-09T12:22:15;4.45;;;2.53;;
16880;SDS011;8557;52.068;5.198;2022-09-09T12:24:53;6.38;;;2.90;;
16880;SDS011;8557;52.068;5.198;2022-09-09T12:27:27;4.32;;;2.42;;
16880;SDS011;8557;52.068;5.198;2022-09-09T12:30:01;5.85;;;2.72;;
16880;SDS011;8557;52.068;5.198;2022-09-09T12:32:31;6.60;;;2.88;;
16880;SDS011;8557;52.068;5.198;2022-09-09T12:34:58;5.45;;;2.88;;
16880;SDS011;8557;52.068;5.198;2022-09-09T12:40:03;5.65;;;3.20;;
16880;SDS011;8557;52.068;5.198;2022-09-09T12:42:31;5.15;;;2.83;;
16880;SDS011;8557;52.068;5.198;2022-09-09T12:44:59;5.03;;;2.72;;
16880;SDS011;8557;52.068;5.198;2022-09-09T12:47:35;7.22;;;3.40;;
16880;SDS011;8557;52.068;5.198;2022-09-09T12:50:10;6.88;;;3.25;;
16880;SDS011;8557;52.068;5.198;2022-09-09T12:52:42;6.43;;;2.70;;
16880;SDS011;8557;52.068;5.198;2022-09-09T12:55:15;5.35;;;3.03;;
16880;SDS011;8557;52.068;5.198;2022-09-09T12:57:43;6.25;;;2.92;;
16880;SDS011;8557;52.068;5.198;2022-09-09T13:00:12;5.65;;;2.65;;
16880;SDS011;8557;52.068;5.198;2022-09-09T13:02:47;6.70;;;3.03;;
16880;SDS011;8557;52.068;5.198;2022-09-09T13:05:17;3.72;;;2.58;;
16880;SDS011;8557;52.068;5.198;2022-09-09T13:07:46;6.65;;;3.00;;
16880;SDS011;8557;52.068;5.198;2022-09-09T13:10:13;5.07;;;2.20;;
16880;SDS011;8557;52.068;5.198;2022-09-09T13:12:46;3.58;;;2.40;;
16880;SDS011;8557;52.068;5.198;2022-09-09T13:15:15;5.35;;;2.70;;
16880;SDS011;8557;52.068;5.198;2022-09-09T13:17:52;7.88;;;3.58;;
16880;SDS011;8557;52.068;5.198;2022-09-09T13:20:21;5.82;;;3.53;;
16880;SDS011;8557;52.068;5.198;2022-09-09T13:22:50;8.10;;;3.45;;
16880;SDS011;8557;52.068;5.198;2022-09-09T13:25:20;5.57;;;3.45;;
16880;SDS011;8557;52.068;5.198;2022-09-09T13:27:58;6.82;;;3.60;;
16880;SDS011;8557;52.068;5.198;2022-09-09T13:30:28;8.32;;;3.92;;
16880;SDS011;8557;52.068;5.198;2022-09-09T13:33:02;6.50;;;3.67;;
16880;SDS011;8557;52.068;5.198;2022-09-09T13:35:32;6.07;;;3.47;;
16880;SDS011;8557;52.068;5.198;2022-09-09T13:37:59;6.50;;;3.55;;
16880;SDS011;8557;52.068;5.198;2022-09-09T13:40:33;4.93;;;3.58;;
16880;SDS011;8557;52.068;5.198;2022-09-09T13:43:01;4.97;;;3.35;;
16880;SDS011;8557;52.068;5.198;2022-09-09T13:45:30;6.57;;;3.22;;
16880;SDS011;8557;52.068;5.198;2022-09-09T13:47:59;6.15;;;3.47;;
16880;SDS011;8557;52.068;5.198;2022-09-09T13:50:37;5.55;;;3.50;;
16880;SDS011;8557;52.068;5.198;2022-09-09T13:53:03;10.90;;;3.80;;
16880;SDS011;8557;52.068;5.198;2022-09-09T13:55:30;6.93;;;3.30;;
16880;SDS011;8557;52.068;5.198;2022-09-09T13:57:57;7.38;;;3.58;;
16880;SDS011;8557;52.068;5.198;2022-09-09T14:00:26;5.88;;;3.30;;
16880;SDS011;8557;52.068;5.198;2022-09-09T14:02:56;6.20;;;3.40;;
16880;SDS011;8557;52.068;5.198;2022-09-09T14:05:24;5.68;;;3.60;;
16880;SDS011;8557;52.068;5.198;2022-09-09T14:07:52;7.50;;;3.45;;
16880;SDS011;8557;52.068;5.198;2022-09-09T14:10:19;6.25;;;3.60;;
16880;SDS011;8557;52.068;5.198;2022-09-09T14:12:47;7.50;;;3.67;;
16880;SDS011;8557;52.068;5.198;2022-09-09T14:15:14;6.28;;;4.07;;
16880;SDS011;8557;52.068;5.198;2022-09-09T14:17:41;8.27;;;4.15;;
16880;SDS011;8557;52.068;5.198;2022-09-09T14:20:08;8.93;;;4.20;;
16880;SDS011;8557;52.068;5.198;2022-09-09T14:22:38;7.60;;;4.10;;
16880;SDS011;8557;52.068;5.198;2022-09-09T14:25:06;7.75;;;3.97;;
16880;SDS011;8557;52.068;5.198;2022-09-09T14:27:33;8.10;;;3.83;;
16880;SDS011;8557;52.068;5.198;2022-09-09T14:30:00;7.28;;;3.58;;
16880;SDS011;8557;52.068;5.198;2022-09-09T14:32:27;7.38;;;4.05;;
16880;SDS011;8557;52.068;5.198;2022-09-09T14:34:54;9.77;;;3.85;;
16880;SDS011;8557;52.068;5.198;2022-09-09T14:37:21;5.68;;;4.55;;
16880;SDS011;8557;52.068;5.198;2022-09-09T14:39:49;3.88;;;3.40;;
16880;SDS011;8557;52.068;5.198;2022-09-09T14:42:16;5.95;;;3.45;;
16880;SDS011;8557;52.068;5.198;2022-09-09T14:44:43;4.47;;;3.33;;
16880;SDS011;8557;52.068;5.198;2022-09-09T14:47:10;5.07;;;2.80;;
16880;SDS011;8557;52.068;5.198;2022-09-09T14:49:37;3.45;;;2.00;;
16880;SDS011;8557;52.068;5.198;2022-09-09T14:52:04;3.95;;;1.90;;
16880;SDS011;8557;52.068;5.198;2022-09-09T14:54:31;2.50;;;1.60;;
16880;SDS011;8557;52.068;5.198;2022-09-09T14:57:00;3.30;;;1.63;;
16880;SDS011;8557;52.068;5.198;2022-09-09T14:59:27;2.25;;;1.75;;
16880;SDS011;8557;52.068;5.198;2022-09-09T15:01:53;4.90;;;1.85;;
16880;SDS011;8557;52.068;5.198;2022-09-09T15:04:20;4.75;;;1.60;;
16880;SDS011;8557;52.068;5.198;2022-09-09T15:06:47;3.70;;;1.48;;
16880;SDS011;8557;52.068;5.198;2022-09-09T15:09:17;5.03;;;2.15;;
16880;SDS011;8557;52.068;5.198;2022-09-09T15:11:44;3.67;;;1.60;;
16880;SDS011;8557;52.068;5.198;2022-09-09T15:14:12;4.00;;;2.10;;
16880;SDS011;8557;52.068;5.198;2022-09-09T15:16:39;4.78;;;1.50;;
16880;SDS011;8557;52.068;5.198;2022-09-09T15:19:06;3.95;;;1.60;;
16880;SDS011;8557;52.068;5.198;2022-09-09T15:21:35;3.70;;;1.50;;
16880;SDS011;8557;52.068;5.198;2022-09-09T15:24:03;2.95;;;1.48;;
16880;SDS011;8557;52.068;5.198;2022-09-09T15:26:33;5.65;;;1.55;;
16880;SDS011;8557;52.068;5.198;2022-09-09T15:29:00;3.58;;;1.20;;
16880;SDS011;8557;52.068;5.198;2022-09-09T15:31:29;2.45;;;1.50;;
16880;SDS011;8557;52.068;5.198;2022-09-09T15:33:57;2.47;;;1.33;;